createdAt,value
2023-04-24T00:04:27.221Z,0.57
2023-04-24T00:14:31.982Z,0.93
2023-04-24T00:24:35.438Z,0.30
2023-04-24T00:34:40.054Z,0.20
2023-04-24T00:44:43.444Z,0.20
2023-04-24T00:54:48.109Z,0.20
2023-04-24T01:04:52.446Z,0.33
2023-04-24T01:14:58.081Z,0.30
2023-04-24T01:25:03.382Z,0.20
2023-04-24T01:35:08.896Z,0.30
2023-04-24T01:45:14.911Z,0.20
2023-04-24T01:55:18.032Z,0.20
2023-04-24T02:05:23.788Z,0.20
2023-04-24T02:15:27.027Z,0.20
2023-04-24T02:25:31.637Z,0.20
2023-04-24T02:35:34.857Z,0.20
2023-04-24T02:45:39.633Z,0.30
2023-04-24T02:55:42.848Z,0.70
2023-04-24T03:05:48.060Z,0.30
2023-04-24T03:15:51.156Z,0.20
2023-04-24T03:25:55.906Z,0.30
2023-04-24T03:35:59.317Z,1.90
2023-04-24T03:46:05.549Z,0.30
2023-04-24T03:56:12.721Z,0.63
2023-04-24T04:06:20.436Z,0.53
2023-04-24T04:16:24.121Z,1.27
2023-04-24T04:26:33.599Z,0.90
2023-04-24T04:36:41.138Z,0.70
2023-04-24T04:47:09.834Z,0.60
2023-04-24T04:57:14.341Z,0.93
2023-04-24T05:07:19.567Z,3.30
2023-04-24T05:17:27.806Z,0.70
2023-04-24T05:27:34.175Z,0.60
2023-04-24T05:37:39.242Z,3.07
2023-04-24T05:47:46.011Z,1.73
2023-04-24T05:57:49.378Z,1.23
2023-04-24T06:07:54.150Z,3.10
2023-04-24T06:18:00.587Z,1.73
2023-04-24T06:28:05.849Z,1.55
2023-04-24T06:38:09.188Z,1.17
2023-04-24T06:48:13.742Z,2.10
2023-04-24T06:58:16.939Z,0.95
2023-04-24T07:08:22.339Z,2.30
2023-04-24T07:18:25.536Z,2.55
2023-04-24T07:28:32.005Z,2.67
2023-04-24T07:38:35.212Z,2.20
2023-04-24T07:48:39.725Z,1.75
2023-04-24T07:58:42.820Z,3.10
2023-04-24T08:08:47.486Z,2.58
2023-04-24T08:18:50.942Z,4.22
2023-04-24T08:28:55.491Z,2.25
2023-04-24T08:38:58.688Z,3.10
2023-04-24T08:49:03.698Z,2.08
2023-04-24T08:59:07.408Z,1.58
2023-04-24T09:09:13.651Z,1.90
2023-04-24T09:19:16.843Z,1.17
2023-04-24T09:29:21.548Z,3.58
2023-04-24T09:39:24.719Z,2.17
2023-04-24T09:49:30.445Z,1.42
2023-04-24T09:59:34.582Z,2.17
2023-04-24T10:09:40.714Z,3.42
2023-04-24T10:19:45.764Z,2.92
2023-04-24T10:29:53.415Z,2.25
2023-04-24T10:39:58.034Z,3.08
2023-04-24T10:50:04.051Z,1.10
2023-04-24T11:00:18.414Z,3.00
2023-04-24T11:10:29.296Z,1.83
2023-04-24T11:20:33.111Z,1.88
2023-04-24T11:30:41.965Z,3.20
2023-04-24T11:40:45.660Z,1.85
2023-04-24T11:50:50.870Z,2.20
2023-04-24T12:01:00.407Z,2.42
2023-04-24T12:11:06.288Z,2.65
2023-04-24T12:21:23.257Z,2.22
2023-04-24T12:31:30.543Z,2.13
2023-04-24T12:41:33.754Z,1.42
2023-04-24T12:51:38.330Z,1.65
2023-04-24T13:01:41.614Z,1.98
2023-04-24T13:11:46.303Z,1.63
2023-04-24T13:21:49.611Z,2.10
2023-04-24T13:31:58.390Z,2.97
2023-04-24T13:42:04.436Z,2.38
2023-04-24T13:52:11.397Z,1.35
2023-04-24T14:02:14.668Z,1.48
2023-04-24T14:12:21.121Z,1.20
2023-04-24T14:22:24.274Z,2.85
2023-04-24T14:32:29.186Z,2.90
2023-04-24T14:42:32.425Z,3.15
2023-04-24T14:52:37.068Z,1.30
2023-04-24T15:02:43.040Z,1.00
2023-04-24T15:12:47.846Z,4.13
2023-04-24T15:22:51.120Z,2.92
2023-04-24T15:32:55.679Z,2.75
2023-04-24T15:42:58.927Z,1.42
2023-04-24T15:53:03.518Z,1.90
2023-04-24T16:03:09.277Z,1.85
2023-04-24T16:13:14.729Z,2.45
2023-04-24T16:23:17.872Z,3.17
2023-04-24T16:33:22.462Z,1.88
2023-04-24T16:43:27.113Z,2.65
2023-04-24T16:53:31.611Z,3.67
2023-04-24T17:03:34.918Z,2.70
2023-04-24T17:13:39.728Z,1.80
2023-04-24T17:23:42.868Z,3.05
2023-04-24T17:33:47.415Z,3.03
2023-04-24T17:43:50.732Z,4.20
2023-04-24T17:53:55.527Z,2.75
2023-04-24T18:03:58.894Z,3.00
2023-04-24T18:14:03.577Z,2.10
2023-04-24T18:24:07.325Z,2.75
2023-04-24T18:34:11.888Z,3.42
2023-04-24T18:44:15.344Z,5.05
2023-04-24T18:54:19.876Z,3.28
2023-04-24T19:04:23.147Z,2.40
2023-04-24T19:14:27.829Z,4.47
2023-04-24T19:24:33.353Z,5.28
2023-04-24T19:34:40.417Z,4.10
2023-04-24T19:44:43.946Z,4.03
2023-04-24T19:54:48.472Z,3.28
2023-04-24T20:04:51.904Z,3.40
2023-04-24T20:14:56.805Z,3.13
2023-04-24T20:25:09.806Z,3.45
2023-04-24T20:35:13.051Z,2.47
2023-04-24T20:45:18.871Z,2.63
2023-04-24T20:55:22.154Z,2.47
2023-04-24T21:05:27.067Z,3.57
2023-04-24T21:15:30.846Z,2.80
2023-04-24T21:25:36.073Z,3.93
2023-04-24T21:35:39.159Z,3.80
2023-04-24T21:45:43.771Z,4.33
2023-04-24T21:55:47.185Z,4.47
2023-04-24T22:05:51.706Z,4.43
2023-04-24T22:15:55.081Z,2.33
2023-04-24T22:25:59.792Z,3.70
2023-04-24T22:36:02.918Z,4.87
2023-04-24T22:46:07.475Z,5.20
2023-04-24T22:56:10.693Z,3.23
2023-04-24T23:06:15.269Z,4.82
2023-04-24T23:16:18.494Z,3.63
2023-04-24T23:26:23.053Z,4.10
2023-04-24T23:36:26.367Z,6.47
2023-04-24T23:46:31.037Z,7.07
2023-04-24T23:56:34.393Z,4.90
